Time;durP1;ratioP1;P1;durP2;ratioP2;P2;SDS_P1;SDS_P2;PMS_P1;PMS_P2;Temp;Humidity;BMP_temperature;BMP_pressure;BME280_temperature;BME280_humidity;BME280_pressure;Samples;Min_cycle;Max_cycle;Signal;HPM_P1;HPM_P2
2021/03/28 00:01:23;;;;;;;;;;;;;;;12.92;57.11;101895.34;5114475;28;20403;-78
2021/03/28 00:04:09;;;;;;;;;;;;;;;12.92;57.15;101898.06;5116113;28;20287;-78
2021/03/28 00:06:58;;;;;;;;;;;;;;;12.74;57.14;101900.59;5111216;28;19916;-78
2021/03/28 00:09:45;;;;;;;;;;;;;;;12.65;57.52;101904.28;5114443;28;19916;-79
2021/03/28 00:12:34;;;;;;;;;;;;;;;12.74;57.85;101902.50;5118107;28;20456;-78
2021/03/28 00:15:20;;;;;;;;;;;;;;;12.62;57.59;101908.44;5112857;28;19916;-78
2021/03/28 00:18:05;;;;;;;;;;;;;;;12.58;57.55;101907.44;5120231;28;19915;-78
2021/03/28 00:21:10;;;;;;;;;;;;;;;12.64;57.17;101913.59;5116011;28;19920;-80
2021/03/28 00:24:13;;;;;;;;;;;;;;;12.71;57.06;101920.28;5115423;28;19915;-78
2021/03/28 00:27:16;;;;;;;;;;;;;;;12.70;57.64;101921.38;5115368;28;19916;-78
2021/03/28 00:30:05;;;;;;;;;;;;;;;12.85;56.24;101915.66;5114004;28;19915;-78
2021/03/28 00:33:04;;;;;;;;;;;;;;;12.79;56.61;101921.53;5117098;28;19916;-76
2021/03/28 00:35:49;;;;;;;;;;;;;;;12.69;57.33;101933.44;5114621;28;20395;-77
2021/03/28 00:38:36;;;;;;;;;;;;;;;12.45;57.66;101932.72;5112861;28;20280;-77
2021/03/28 00:41:28;;;;;;;;;;;;;;;12.40;57.39;101928.16;5117940;28;20354;-78
2021/03/28 00:44:17;;;;;;;;;;;;;;;12.44;58.17;101934.66;5098865;28;19916;-77
2021/03/28 00:47:04;;;;;;;;;;;;;;;12.55;57.54;101938.03;5113459;28;19916;-77
2021/03/28 00:49:57;;;;;;;;;;;;;;;12.59;57.32;101933.59;5114971;28;19916;-78
2021/03/28 00:52:52;;;;;;;;;;;;;;;12.51;57.44;101928.00;5099532;28;19916;-78
2021/03/28 00:55:41;;;;;;;;;;;;;;;12.56;57.41;101928.72;5119662;27;19920;-77
2021/03/28 00:58:28;;;;;;;;;;;;;;;12.62;57.58;101926.72;5101108;28;19924;-77
2021/03/28 01:01:31;;;;;;;;;;;;;;;12.63;57.34;101923.72;5098150;28;19916;-77
2021/03/28 01:04:34;;;;;;;;;;;;;;;12.56;56.98;101922.47;5116231;28;20518;-77
2021/03/28 01:07:28;;;;;;;;;;;;;;;12.65;57.03;101926.94;5114086;28;19916;-77
2021/03/28 01:10:31;;;;;;;;;;;;;;;12.65;56.67;101921.47;5113685;28;20388;-78
2021/03/28 01:13:34;;;;;;;;;;;;;;;12.52;57.16;101926.91;5113804;28;19915;-78
2021/03/28 01:16:35;;;;;;;;;;;;;;;12.41;57.67;101923.53;5111017;28;21387;-78
2021/03/28 01:19:20;;;;;;;;;;;;;;;12.35;57.15;101919.25;5115526;28;19919;-78
2021/03/28 01:22:23;;;;;;;;;;;;;;;12.48;57.37;101923.97;5113449;28;19916;-78
2021/03/28 01:25:32;;;;;;;;;;;;;;;12.57;56.85;101918.63;5118116;28;20291;-79
2021/03/28 01:28:31;;;;;;;;;;;;;;;12.59;56.85;101919.16;5112875;28;19919;-78
2021/03/28 01:31:16;;;;;;;;;;;;;;;12.33;56.80;101919.56;5115367;28;19916;-78
2021/03/28 01:34:12;;;;;;;;;;;;;;;12.07;57.41;101923.78;5114524;28;20391;-78
2021/03/28 01:37:12;;;;;;;;;;;;;;;11.88;57.52;101920.28;5113752;28;19930;-77
2021/03/28 01:40:10;;;;;;;;;;;;;;;11.85;58.47;101924.38;5110995;28;19920;-79
2021/03/28 01:43:13;;;;;;;;;;;;;;;11.73;58.60;101925.94;5119659;27;19926;-80
2021/03/28 01:46:04;;;;;;;;;;;;;;;11.90;58.13;101929.75;5115376;28;19916;-79
2021/03/28 01:48:54;;;;;;;;;;;;;;;12.00;58.56;101934.25;5115041;28;19916;-80
2021/03/28 01:51:38;;;;;;;;;;;;;;;11.99;58.83;101933.44;5110904;28;20295;-79
2021/03/28 01:54:41;;;;;;;;;;;;;;;12.00;58.21;101934.25;5115349;28;19916;-78
2021/03/28 01:57:38;;;;;;;;;;;;;;;12.13;57.97;101935.44;5113420;28;19916;-79
2021/03/28 02:00:41;;;;;;;;;;;;;;;12.18;57.99;101941.63;5116025;28;19920;-78
2021/03/28 02:03:55;;;;;;;;;;;;;;;12.04;57.93;101942.66;5113111;28;19916;-79
2021/03/28 02:06:40;;;;;;;;;;;;;;;12.02;57.90;101942.97;5103603;28;19916;-79
2021/03/28 02:09:27;;;;;;;;;;;;;;;12.01;58.15;101946.78;5112459;28;19916;-79
2021/03/28 02:12:20;;;;;;;;;;;;;;;12.08;57.80;101940.97;5112793;28;19916;-79
2021/03/28 02:15:11;;;;;;;;;;;;;;;12.13;58.20;101946.34;5112364;28;20512;-79
2021/03/28 02:17:57;;;;;;;;;;;;;;;12.06;58.68;101949.44;5118882;28;19920;-79
2021/03/28 02:20:46;;;;;;;;;;;;;;;12.10;58.72;101944.19;5110352;28;19920;-79
2021/03/28 02:23:37;;;;;;;;;;;;;;;12.04;58.44;101942.66;5115620;28;19916;-79
2021/03/28 02:26:26;;;;;;;;;;;;;;;12.18;58.50;101944.34;5112141;28;19915;-79
2021/03/28 02:29:15;;;;;;;;;;;;;;;12.10;59.08;101946.91;5111089;28;19916;-78
2021/03/28 02:32:03;;;;;;;;;;;;;;;12.10;59.42;101946.91;5101105;28;19915;-79
2021/03/28 02:35:07;;;;;;;;;;;;;;;12.21;58.85;101948.41;5112421;28;19916;-79
2021/03/28 02:38:10;;;;;;;;;;;;;;;12.36;58.46;101951.69;5116514;28;20371;-78
2021/03/28 02:41:13;;;;;;;;;;;;;;;12.38;58.19;101951.41;5113526;28;19920;-78
2021/03/28 02:44:17;;;;;;;;;;;;;;;12.19;58.87;101954.13;5121549;28;19923;-78
2021/03/28 02:47:16;;;;;;;;;;;;;;;12.21;58.58;101953.84;5119599;28;19916;-78
2021/03/28 02:50:10;;;;;;;;;;;;;;;12.02;58.98;101956.59;5115491;28;19915;-76
2021/03/28 02:52:54;;;;;;;;;;;;;;;12.09;59.19;101950.78;5118840;28;19916;-79
2021/03/28 02:55:42;;;;;;;;;;;;;;;12.13;59.02;101957.25;5117547;28;19923;-80
2021/03/28 02:58:50;;;;;;;;;;;;;;;12.04;58.90;101961.75;5111575;28;19916;-78
2021/03/28 03:01:35;;;;;;;;;;;;;;;11.97;59.20;101970.28;5119671;28;19919;-78
2021/03/28 03:04:26;;;;;;;;;;;;;;;12.07;59.32;101963.88;5117438;28;19915;-79
2021/03/28 03:07:11;;;;;;;;;;;;;;;11.97;59.84;101965.66;5121440;28;19916;-78
2021/03/28 03:10:14;;;;;;;;;;;;;;;12.07;59.57;101969.34;5116774;28;19916;-80
2021/03/28 03:13:04;;;;;;;;;;;;;;;12.09;59.59;101969.88;5116766;28;19916;-78
2021/03/28 03:15:57;;;;;;;;;;;;;;;12.12;59.53;101971.97;5123119;28;19912;-79
2021/03/28 03:19:00;;;;;;;;;;;;;;;12.15;59.57;101977.66;5120357;28;19916;-77
2021/03/28 03:22:03;;;;;;;;;;;;;;;12.14;59.65;101980.69;5105524;28;19919;-78
2021/03/28 03:25:09;;;;;;;;;;;;;;;12.22;59.83;101988.19;5118066;28;19920;-78
2021/03/28 03:27:57;;;;;;;;;;;;;;;12.21;59.39;101979.22;5121294;28;20368;-77
2021/03/28 03:31:00;;;;;;;;;;;;;;;12.17;59.47;101989.09;5118847;28;19915;-78
2021/03/28 03:34:03;;;;;;;;;;;;;;;12.25;59.30;101993.06;5116155;28;19916;-77
2021/03/28 03:37:03;;;;;;;;;;;;;;;12.24;59.02;101991.47;5119207;28;19916;-78
2021/03/28 03:40:01;;;;;;;;;;;;;;;12.24;59.31;101999.63;5118295;22;20316;-86
2021/03/28 03:42:46;;;;;;;;;;;;;;;12.21;59.56;101998.28;5091959;28;19920;-87
2021/03/28 03:45:31;;;;;;;;;;;;;;;12.18;59.79;102009.00;5103708;28;19916;-87
2021/03/28 03:48:31;;;;;;;;;;;;;;;12.16;59.83;102013.91;5101897;28;19916;-87
2021/03/28 03:51:31;;;;;;;;;;;;;;;12.20;59.57;102013.03;5079197;28;20308;-87
2021/03/28 03:54:33;;;;;;;;;;;;;;;12.29;59.52;102013.97;5081652;28;19917;-88
2021/03/28 03:57:27;;;;;;;;;;;;;;;12.35;59.09;102010.09;5079174;28;20368;-86
2021/03/28 04:00:26;;;;;;;;;;;;;;;12.44;58.97;102019.22;5064808;28;19921;-87
2021/03/28 04:03:14;;;;;;;;;;;;;;;12.39;59.23;102023.97;5080355;28;20388;-87
2021/03/28 04:06:01;;;;;;;;;;;;;;;12.41;59.17;102021.72;5079138;28;19917;-87
2021/03/28 04:08:55;;;;;;;;;;;;;;;12.43;58.94;102025.81;5080850;28;19916;-87
2021/03/28 04:11:54;;;;;;;;;;;;;;;12.53;58.88;102021.28;5078641;28;19917;-87
2021/03/28 04:14:39;;;;;;;;;;;;;;;12.64;58.88;102023.59;5062648;28;19916;-87
2021/03/28 04:17:42;;;;;;;;;;;;;;;12.61;58.52;102035.06;5068770;28;20369;-87
2021/03/28 04:20:34;;;;;;;;;;;;;;;12.55;58.83;102030.78;5058776;28;19921;-87
2021/03/28 04:23:30;;;;;;;;;;;;;;;12.52;58.94;102036.84;5078165;28;19917;-87
2021/03/28 04:26:25;;;;;;;;;;;;;;;12.57;58.73;102038.69;5064755;28;19916;-87
2021/03/28 04:29:14;;;;;;;;;;;;;;;12.50;59.48;102049.16;5082677;28;19920;-87
2021/03/28 04:32:11;;;;;;;;;;;;;;;12.35;60.08;102059.19;5081017;28;19916;-87
2021/03/28 04:35:00;;;;;;;;;;;;;;;12.29;60.30;102062.31;5078227;28;19916;-88
2021/03/28 04:38:01;;;;;;;;;;;;;;;12.24;60.60;102070.53;5083389;28;19916;-87
2021/03/28 04:40:57;;;;;;;;;;;;;;;12.22;60.83;102070.00;5078348;28;19920;-87
2021/03/28 04:43:45;;;;;;;;;;;;;;;12.30;60.08;102074.81;5072643;28;19917;-87
2021/03/28 04:46:49;;;;;;;;;;;;;;;12.34;60.00;102073.91;5076451;28;19916;-87
2021/03/28 04:49:53;;;;;;;;;;;;;;;12.26;60.72;102087.41;5060424;28;19916;-86
2021/03/28 04:52:37;;;;;;;;;;;;;;;12.23;60.90;102088.00;5073750;28;19916;-87
2021/03/28 04:55:37;;;;;;;;;;;;;;;12.23;60.82;102094.28;5079934;28;20296;-85
2021/03/28 04:58:48;;;;;;;;;;;;;;;12.31;60.50;102092.81;5079317;28;19916;-86
2021/03/28 05:01:49;;;;;;;;;;;;;;;12.32;60.38;102092.50;5049089;28;19921;-85
2021/03/28 05:04:39;;;;;;;;;;;;;;;12.28;60.55;102090.66;5064543;28;19917;-85
2021/03/28 05:07:42;;;;;;;;;;;;;;;12.23;60.65;102098.91;5062818;28;19916;-86
2021/03/28 05:10:45;;;;;;;;;;;;;;;12.17;60.87;102111.00;5059401;28;20400;-85
2021/03/28 05:13:50;;;;;;;;;;;;;;;12.19;60.54;102108.78;5066469;28;19921;-86
2021/03/28 05:16:55;;;;;;;;;;;;;;;12.20;60.61;102113.13;5058952;28;19916;-85
2021/03/28 05:19:49;;;;;;;;;;;;;;;12.20;60.42;102121.31;5082286;28;19924;-86
2021/03/28 05:22:40;;;;;;;;;;;;;;;12.24;60.54;102122.38;5080446;28;20405;-86
2021/03/28 05:25:43;;;;;;;;;;;;;;;12.19;61.00;102127.88;5084909;28;19916;-85
2021/03/28 05:28:27;;;;;;;;;;;;;;;12.22;61.14;102124.56;5086479;28;20300;-88
2021/03/28 05:31:24;;;;;;;;;;;;;;;12.24;61.41;102125.88;5078755;28;19916;-85
2021/03/28 05:34:12;;;;;;;;;;;;;;;12.17;62.56;102133.63;5083273;28;20308;-83
2021/03/28 05:37:08;;;;;;;;;;;;;;;12.20;62.84;102140.38;5078442;28;19917;-83
2021/03/28 05:40:02;;;;;;;;;;;;;;;12.23;63.30;102137.09;5079400;28;19920;-83
2021/03/28 05:43:05;;;;;;;;;;;;;;;12.14;63.88;102144.31;5079792;28;19916;-82
2021/03/28 05:45:58;;;;;;;;;;;;;;;12.18;64.10;102134.44;5076786;28;19920;-83
2021/03/28 05:48:46;;;;;;;;;;;;;;;12.17;64.18;102146.44;5081054;28;20380;-82
2021/03/28 05:51:49;;;;;;;;;;;;;;;12.23;64.48;102148.00;5077114;28;19921;-84
2021/03/28 05:54:47;;;;;;;;;;;;;;;12.21;64.63;102158.38;5081448;28;19917;-83
2021/03/28 05:57:32;;;;;;;;;;;;;;;12.18;64.75;102161.69;5078532;28;19916;-84
2021/03/28 06:00:25;;;;;;;;;;;;;;;12.13;65.09;102161.75;5077752;28;19920;-83
2021/03/28 06:03:19;;;;;;;;;;;;;;;12.14;65.11;102166.13;5081582;28;19920;-83
2021/03/28 06:06:13;;;;;;;;;;;;;;;12.11;65.32;102172.94;5079314;28;20301;-83
2021/03/28 06:09:00;;;;;;;;;;;;;;;12.08;65.37;102172.72;5082047;28;19916;-82
2021/03/28 06:11:54;;;;;;;;;;;;;;;12.09;65.22;102172.41;5081088;28;19924;-82
2021/03/28 06:14:48;;;;;;;;;;;;;;;12.16;64.71;102177.53;5078411;28;19916;-83
2021/03/28 06:17:48;;;;;;;;;;;;;;;12.27;64.59;102177.13;5082203;28;19916;-83
2021/03/28 06:20:46;;;;;;;;;;;;;;;12.32;64.42;102182.53;5077263;28;19920;-83
2021/03/28 06:23:45;;;;;;;;;;;;;;;12.41;64.00;102180.78;5083075;28;19916;-83
2021/03/28 06:26:52;;;;;;;;;;;;;;;12.35;64.47;102184.66;5089160;28;19928;-81
2021/03/28 06:29:56;;;;;;;;;;;;;;;12.35;64.82;102189.31;5078104;28;19917;-83
2021/03/28 06:32:56;;;;;;;;;;;;;;;12.39;64.68;102187.66;5080534;28;20368;-83
2021/03/28 06:35:59;;;;;;;;;;;;;;;12.44;64.61;102184.84;5077173;28;20299;-83
2021/03/28 06:38:44;;;;;;;;;;;;;;;12.51;64.53;102179.03;5081087;28;20376;-83
2021/03/28 06:41:47;;;;;;;;;;;;;;;12.61;64.30;102187.88;5078734;28;20296;-83
2021/03/28 06:44:34;;;;;;;;;;;;;;;12.65;64.08;102183.47;5081448;28;19917;-82
2021/03/28 06:47:22;;;;;;;;;;;;;;;12.74;63.77;102191.84;5079655;28;19979;-83
2021/03/28 06:50:22;;;;;;;;;;;;;;;12.80;63.91;102190.63;5078204;28;19916;-83
2021/03/28 06:53:12;;;;;;;;;;;;;;;12.87;63.84;102191.09;5082382;28;19917;-83
2021/03/28 06:56:18;;;;;;;;;;;;;;;12.94;63.64;102201.66;5064193;28;19935;-83
2021/03/28 06:59:21;;;;;;;;;;;;;;;12.79;64.28;102203.50;5074108;28;20376;-84
2021/03/28 07:02:18;;;;;;;;;;;;;;;12.87;64.06;102207.47;5079787;28;19920;-84
2021/03/28 07:05:08;;;;;;;;;;;;;;;12.88;64.54;102206.38;5077411;28;19921;-84
2021/03/28 07:07:55;;;;;;;;;;;;;;;12.91;64.48;102208.50;5081219;28;19916;-84
2021/03/28 07:10:53;;;;;;;;;;;;;;;12.95;64.21;102219.69;5077487;28;19917;-84
2021/03/28 07:13:55;;;;;;;;;;;;;;;12.93;64.02;102213.69;5081352;28;19917;-84
2021/03/28 07:16:52;;;;;;;;;;;;;;;12.91;64.01;102210.44;5080526;28;19916;-84
2021/03/28 07:20:00;;;;;;;;;;;;;;;12.95;63.95;102225.13;5078065;28;19920;-84
2021/03/28 07:22:58;;;;;;;;;;;;;;;13.02;63.96;102220.09;5077195;28;19916;-84
2021/03/28 07:26:01;;;;;;;;;;;;;;;13.09;63.85;102223.28;5078033;28;19916;-85
2021/03/28 07:29:04;;;;;;;;;;;;;;;13.14;63.44;102224.06;5082865;28;19916;-84
2021/03/28 07:32:05;;;;;;;;;;;;;;;13.23;63.43;102227.75;5088151;28;19916;-84
2021/03/28 07:35:04;;;;;;;;;;;;;;;13.30;63.33;102226.56;5088363;28;19916;-85
2021/03/28 07:38:01;;;;;;;;;;;;;;;13.40;63.02;102227.22;5083367;28;19916;-85
2021/03/28 07:41:04;;;;;;;;;;;;;;;13.51;62.61;102228.66;5086738;28;19920;-84
2021/03/28 07:43:49;;;;;;;;;;;;;;;13.68;61.83;102233.59;5083755;28;19917;-84
2021/03/28 07:46:33;;;;;;;;;;;;;;;13.85;60.95;102238.50;5082276;28;19916;-84
2021/03/28 07:49:28;;;;;;;;;;;;;;;13.91;61.09;102238.13;5084806;28;19917;-85
2021/03/28 07:52:23;;;;;;;;;;;;;;;14.03;60.48;102240.38;5083576;28;19924;-83
2021/03/28 07:55:08;;;;;;;;;;;;;;;14.09;60.23;102244.66;5087341;28;19916;-84
2021/03/28 07:58:11;;;;;;;;;;;;;;;14.16;59.77;102239.59;5084907;28;19916;-83
2021/03/28 08:01:15;;;;;;;;;;;;;;;14.23;59.77;102233.72;5082429;28;19921;-83
2021/03/28 08:04:13;;;;;;;;;;;;;;;14.21;59.48;102236.78;5085837;28;19920;-84
2021/03/28 08:07:04;;;;;;;;;;;;;;;14.21;58.86;102235.97;5083618;28;19916;-84
2021/03/28 08:10:08;;;;;;;;;;;;;;;14.22;58.81;102234.84;5067830;28;19917;-84
2021/03/28 08:12:58;;;;;;;;;;;;;;;14.42;58.17;102238.03;5083850;28;19916;-85
2021/03/28 08:16:02;;;;;;;;;;;;;;;14.42;57.73;102237.22;5066789;28;19916;-86
2021/03/28 08:18:55;;;;;;;;;;;;;;;14.47;57.42;102234.38;5085929;28;19924;-85
2021/03/28 08:21:47;;;;;;;;;;;;;;;14.58;57.14;102237.72;5082480;28;20292;-85
2021/03/28 08:24:44;;;;;;;;;;;;;;;14.73;56.80;102232.72;5084482;28;20300;-85
2021/03/28 08:27:48;;;;;;;;;;;;;;;14.81;56.28;102234.75;5083400;28;19916;-84
2021/03/28 08:30:32;;;;;;;;;;;;;;;14.85;55.89;102232.22;5080773;28;19920;-84
2021/03/28 08:33:20;;;;;;;;;;;;;;;15.01;55.57;102244.47;5084863;28;19917;-85
2021/03/28 08:36:23;;;;;;;;;;;;;;;15.12;55.22;102245.06;5082272;28;19916;-86
2021/03/28 08:39:23;;;;;;;;;;;;;;;15.24;54.94;102248.84;5085530;28;20289;-84
2021/03/28 08:42:27;;;;;;;;;;;;;;;15.23;54.58;102247.25;5082838;28;19920;-85
2021/03/28 08:45:24;;;;;;;;;;;;;;;15.36;54.71;102251.06;5085265;28;19916;-85
2021/03/28 08:48:27;;;;;;;;;;;;;;;15.37;54.61;102250.75;5088215;28;19916;-87
2021/03/28 08:51:14;;;;;;;;;;;;;;;15.49;54.28;102249.41;5079317;28;19916;-88
2021/03/28 08:54:05;;;;;;;;;;;;;;;15.62;53.74;102254.06;5091954;28;19917;-88
2021/03/28 08:56:59;;;;;;;;;;;;;;;15.60;53.59;102248.88;5089371;28;19916;-89
2021/03/28 08:59:44;;;;;;;;;;;;;;;15.56;53.81;102256.09;5088082;28;19916;-87
2021/03/28 09:02:35;;;;;;;;;;;;;;;15.65;53.56;102259.72;5092980;28;19917;-86
2021/03/28 09:05:31;;;;;;;;;;;;;;;15.77;53.48;102267.38;5087551;28;19938;-86
2021/03/28 09:08:24;;;;;;;;;;;;;;;15.96;52.53;102264.44;5091006;28;19931;-87
2021/03/28 09:11:42;;;;;;;;;;;;;;;15.97;52.66;102274.28;5091014;28;19920;-86
2021/03/28 09:14:43;;;;;;;;;;;;;;;16.12;52.39;102268.41;5092586;28;19924;-87
2021/03/28 09:17:28;;;;;;;;;;;;;;;16.17;52.92;102266.34;5086958;28;19916;-87
2021/03/28 09:20:13;;;;;;;;;;;;;;;16.42;52.15;102266.78;5082748;28;19924;-87
2021/03/28 09:23:14;;;;;;;;;;;;;;;16.67;51.40;102271.59;5071550;28;19916;-87
2021/03/28 09:26:05;;;;;;;;;;;;;;;16.91;50.66;102276.69;5069913;28;19917;-86
2021/03/28 09:28:50;;;;;;;;;;;;;;;16.81;50.50;102280.50;5077049;28;19920;-86
2021/03/28 09:31:38;;;;;;;;;;;;;;;16.78;50.09;102277.59;5070840;28;20324;-86
2021/03/28 09:35:01;;;;;;;;;;;;;;;17.18;49.42;102275.59;5066883;28;19917;-86
2021/03/28 09:37:54;;;;;;;;;;;;;;;17.39;48.86;102273.81;5024941;28;20386;-86
2021/03/28 09:41:11;;;;;;;;;;;;;;;17.47;48.30;102267.53;5071768;23;20335;-82
2021/03/28 09:44:15;;;;;;;;;;;;;;;17.55;48.20;102272.22;5092660;28;20307;-81
2021/03/28 09:47:19;;;;;;;;;;;;;;;17.70;48.41;102269.00;5092794;28;19916;-82
2021/03/28 09:50:22;;;;;;;;;;;;;;;17.95;47.81;102276.41;5096697;28;19916;-80
2021/03/28 09:53:19;;;;;;;;;;;;;;;17.91;47.78;102266.38;5115222;28;19915;-83
2021/03/28 09:56:22;;;;;;;;;;;;;;;18.03;47.75;102261.00;5119177;28;19916;-83
2021/03/28 09:59:07;;;;;;;;;;;;;;;18.03;47.30;102266.50;5119894;27;19916;-82
2021/03/28 10:02:01;;;;;;;;;;;;;;;18.05;47.20;102266.19;5127793;27;19916;-82
2021/03/28 10:04:49;;;;;;;;;;;;;;;18.38;46.66;102257.00;5114495;28;20407;-84
2021/03/28 10:07:40;;;;;;;;;;;;;;;18.79;45.21;102250.81;5136804;27;19916;-79
2021/03/28 10:10:48;;;;;;;;;;;;;;;19.79;42.86;102262.91;5124059;27;19915;-83
2021/03/28 10:13:51;;;;;;;;;;;;;;;20.00;41.69;102261.69;5098894;27;19916;-82
2021/03/28 10:17:02;;;;;;;;;;;;;;;19.91;41.91;102258.19;5124895;27;20411;-80
2021/03/28 10:19:49;;;;;;;;;;;;;;;19.36;43.41;102255.78;5109091;27;19916;-82
2021/03/28 10:22:37;;;;;;;;;;;;;;;18.84;44.72;102258.09;5127981;27;19915;-84
2021/03/28 10:25:28;;;;;;;;;;;;;;;18.71;45.15;102259.94;5125769;27;19919;-82
2021/03/28 10:28:20;;;;;;;;;;;;;;;18.46;45.48;102252.59;5132188;27;19916;-82
2021/03/28 10:31:04;;;;;;;;;;;;;;;18.56;45.22;102252.25;5123753;27;19915;-83
2021/03/28 10:33:51;;;;;;;;;;;;;;;18.52;45.11;102243.00;5123794;28;19915;-81
2021/03/28 10:36:50;;;;;;;;;;;;;;;18.66;45.32;102246.34;5123745;28;19924;-81
2021/03/28 10:39:35;;;;;;;;;;;;;;;18.72;45.27;102252.50;5126706;27;20391;-80
2021/03/28 10:42:41;;;;;;;;;;;;;;;18.63;44.42;102236.00;5122476;27;19923;-81
2021/03/28 10:45:50;;;;;;;;;;;;;;;18.82;43.95;102234.75;5127825;27;19920;-80
2021/03/28 10:48:38;;;;;;;;;;;;;;;18.69;43.59;102239.38;5123514;27;19923;-78
2021/03/28 10:51:41;;;;;;;;;;;;;;;18.88;44.04;102231.47;5122274;27;19916;-81
2021/03/28 10:54:44;;;;;;;;;;;;;;;18.93;43.59;102239.56;5125840;27;19915;-84
2021/03/28 10:57:31;;;;;;;;;;;;;;;18.76;42.36;102237.72;5121595;27;19919;-84
2021/03/28 11:00:35;;;;;;;;;;;;;;;18.78;43.86;102234.63;5127602;27;19924;-82
2021/03/28 11:03:39;;;;;;;;;;;;;;;18.97;43.70;102234.16;5125307;27;19920;-82
2021/03/28 11:06:33;;;;;;;;;;;;;;;18.92;43.53;102239.88;5131188;27;20294;-83
2021/03/28 11:09:30;;;;;;;;;;;;;;;18.95;44.08;102233.69;5128860;27;19923;-80
2021/03/28 11:12:14;;;;;;;;;;;;;;;18.71;43.37;102224.13;5132181;27;20334;-83
2021/03/28 11:15:38;;;;;;;;;;;;;;;18.93;43.31;102233.22;5130394;27;20372;-82
2021/03/28 11:18:25;;;;;;;;;;;;;;;19.18;42.26;102224.78;5056405;28;19925;-83
2021/03/28 11:21:24;;;;;;;;;;;;;;;19.10;42.08;102233.91;5051372;28;19924;-82
2021/03/28 11:24:10;;;;;;;;;;;;;;;19.10;42.57;102230.34;5123845;27;19923;-82
2021/03/28 11:27:15;;;;;;;;;;;;;;;19.14;42.11;102229.34;5131560;27;20283;-84
2021/03/28 11:30:09;;;;;;;;;;;;;;;19.21;41.53;102235.13;5129583;27;19923;-83
2021/03/28 11:32:54;;;;;;;;;;;;;;;19.13;41.30;102224.97;5134603;27;19916;-82
2021/03/28 11:36:05;;;;;;;;;;;;;;;19.17;40.91;102219.59;5134075;27;20311;-82
2021/03/28 11:39:08;;;;;;;;;;;;;;;18.97;41.67;102223.97;5109333;27;19915;-83
2021/03/28 11:42:00;;;;;;;;;;;;;;;18.83;41.76;102230.88;5133965;27;19915;-82
2021/03/28 11:45:05;;;;;;;;;;;;;;;18.81;42.62;102225.69;5130700;27;19935;-81
2021/03/28 11:47:54;;;;;;;;;;;;;;;18.90;42.67;102228.38;5128789;27;19919;-82
2021/03/28 11:50:39;;;;;;;;;;;;;;;18.75;43.01;102219.56;5127065;27;19915;-81
2021/03/28 11:53:24;;;;;;;;;;;;;;;18.89;42.51;102211.06;5126884;27;19916;-81
2021/03/28 11:56:27;;;;;;;;;;;;;;;18.85;42.66;102214.78;5132063;27;19915;-82
2021/03/28 11:59:19;;;;;;;;;;;;;;;18.80;42.17;102219.34;5135330;27;19915;-82
2021/03/28 12:02:10;;;;;;;;;;;;;;;18.90;42.11;102211.84;5136408;27;19915;-82
2021/03/28 12:04:57;;;;;;;;;;;;;;;18.90;42.17;102215.41;5135731;27;19927;-83
2021/03/28 12:07:43;;;;;;;;;;;;;;;18.72;42.67;102213.91;5133881;27;19924;-81
2021/03/28 12:10:32;;;;;;;;;;;;;;;18.97;41.88;102212.94;5121414;27;19916;-81
2021/03/28 12:13:27;;;;;;;;;;;;;;;19.04;41.95;102213.22;5120449;27;19915;-83
2021/03/28 12:16:12;;;;;;;;;;;;;;;19.13;42.01;102204.88;5133504;27;19923;-80
2021/03/28 12:18:58;;;;;;;;;;;;;;;19.26;42.05;102211.22;5122967;27;19915;-81
2021/03/28 12:21:47;;;;;;;;;;;;;;;19.28;41.90;102201.50;5125296;27;19916;-80
2021/03/28 12:24:33;;;;;;;;;;;;;;;19.31;42.00;102195.28;5126582;27;19920;-81
2021/03/28 12:27:23;;;;;;;;;;;;;;;19.35;42.43;102201.72;5129746;27;19916;-82
2021/03/28 12:30:29;;;;;;;;;;;;;;;19.30;42.14;102196.41;5129034;27;19915;-81
2021/03/28 12:33:20;;;;;;;;;;;;;;;19.32;41.85;102202.41;5131467;27;20287;-80
2021/03/28 12:36:07;;;;;;;;;;;;;;;19.47;41.38;102198.25;5119978;27;20387;-82
2021/03/28 12:38:54;;;;;;;;;;;;;;;19.34;41.03;102200.16;5131784;27;19916;-80
2021/03/28 12:41:58;;;;;;;;;;;;;;;19.41;41.06;102192.09;5127117;27;19920;-81
2021/03/28 12:44:44;;;;;;;;;;;;;;;19.53;41.39;102180.34;5125615;27;19945;-81
2021/03/28 12:47:30;;;;;;;;;;;;;;;19.54;40.69;102180.03;5126417;27;19915;-82
2021/03/28 12:50:14;;;;;;;;;;;;;;;19.49;40.88;102184.94;5129836;27;20311;-81
2021/03/28 12:53:05;;;;;;;;;;;;;;;19.47;40.53;102185.28;5131103;27;19915;-81
2021/03/28 12:55:51;;;;;;;;;;;;;;;19.44;40.77;102174.09;5129911;27;20390;-82
2021/03/28 12:58:43;;;;;;;;;;;;;;;19.60;40.28;102175.09;5128214;27;19916;-80
2021/03/28 13:01:30;;;;;;;;;;;;;;;19.77;39.88;102171.31;5115967;27;19915;-80
2021/03/28 13:04:20;;;;;;;;;;;;;;;19.68;40.00;102163.16;5126804;27;19920;-81
2021/03/28 13:07:05;;;;;;;;;;;;;;;19.83;39.99;102164.44;5130553;27;19915;-83
2021/03/28 13:09:49;;;;;;;;;;;;;;;19.93;39.50;102158.47;5131445;27;19928;-82
2021/03/28 13:12:34;;;;;;;;;;;;;;;19.96;39.03;102152.28;5126222;27;19915;-81
2021/03/28 13:15:33;;;;;;;;;;;;;;;19.88;38.78;102153.16;5133070;27;19915;-82
2021/03/28 13:18:26;;;;;;;;;;;;;;;19.77;38.50;102141.75;5127483;27;20375;-82
2021/03/28 13:21:36;;;;;;;;;;;;;;;23.15;33.08;102149.88;5118031;27;19915;-81
2021/03/28 13:24:21;;;;;;;;;;;;;;;29.26;22.38;102157.84;5126091;27;19923;-78
2021/03/28 13:27:13;;;;;;;;;;;;;;;30.34;21.71;102156.66;5115183;27;19915;-79
2021/03/28 13:30:00;;;;;;;;;;;;;;;31.38;20.48;102153.03;5130347;27;19919;-78
2021/03/28 13:32:47;;;;;;;;;;;;;;;32.46;18.97;102152.88;5126835;27;20637;-77
2021/03/28 13:35:33;;;;;;;;;;;;;;;31.40;18.67;102155.41;5127637;27;19920;-82
2021/03/28 13:38:33;;;;;;;;;;;;;;;27.36;23.33;102143.66;5132517;27;20379;-84
2021/03/28 13:41:25;;;;;;;;;;;;;;;29.71;20.10;102142.75;5128382;27;19915;-78
2021/03/28 13:44:16;;;;;;;;;;;;;;;30.67;18.94;102141.91;5130174;27;19920;-78
2021/03/28 13:47:03;;;;;;;;;;;;;;;30.94;18.51;102131.50;5129140;27;19920;-77
2021/03/28 13:49:52;;;;;;;;;;;;;;;25.80;24.99;102119.66;5127626;27;19915;-78
2021/03/28 13:52:41;;;;;;;;;;;;;;;26.02;25.14;102132.56;5132459;27;19915;-79
2021/03/28 13:55:34;;;;;;;;;;;;;;;25.99;25.42;102122.19;5128517;27;19915;-78
2021/03/28 13:58:26;;;;;;;;;;;;;;;28.13;22.40;102124.59;5128779;27;19916;-79
2021/03/28 14:01:17;;;;;;;;;;;;;;;28.79;21.33;102126.47;5125624;27;19919;-80
2021/03/28 14:04:21;;;;;;;;;;;;;;;28.73;21.53;102127.28;5126225;27;20299;-80
2021/03/28 14:07:13;;;;;;;;;;;;;;;28.25;21.55;102124.16;5132964;27;19915;-80
2021/03/28 14:10:04;;;;;;;;;;;;;;;27.12;23.31;102120.03;5127664;27;19915;-81
2021/03/28 14:13:07;;;;;;;;;;;;;;;23.15;29.35;102111.81;5122199;27;19915;-80
2021/03/28 14:16:00;;;;;;;;;;;;;;;22.12;31.40;102115.09;5126956;27;19919;-78
2021/03/28 14:18:50;;;;;;;;;;;;;;;21.87;31.95;102113.66;5126166;27;19915;-80
2021/03/28 14:21:36;;;;;;;;;;;;;;;21.74;31.79;102115.69;5114041;28;20700;-83
2021/03/28 14:24:26;;;;;;;;;;;;;;;21.44;31.90;102111.75;5128505;27;19924;-82
2021/03/28 14:27:24;;;;;;;;;;;;;;;22.25;30.74;102120.53;5127460;27;19920;-81
2021/03/28 14:30:12;;;;;;;;;;;;;;;22.26;31.31;102116.59;5125521;27;19920;-82
2021/03/28 14:33:03;;;;;;;;;;;;;;;22.60;31.12;102118.56;5126616;27;19915;-84
2021/03/28 14:35:59;;;;;;;;;;;;;;;22.74;30.87;102110.59;5122668;27;19915;-82
2021/03/28 14:38:44;;;;;;;;;;;;;;;23.34;29.96;102110.97;5131274;27;19916;-82
2021/03/28 14:41:45;;;;;;;;;;;;;;;22.64;30.81;102102.81;5128471;27;19916;-83
2021/03/28 14:44:29;;;;;;;;;;;;;;;21.71;31.99;102102.59;5134450;27;19919;-80
2021/03/28 14:47:34;;;;;;;;;;;;;;;21.96;32.17;102102.41;5131934;27;19915;-81
2021/03/28 14:50:37;;;;;;;;;;;;;;;21.71;32.07;102101.78;5126660;27;19924;-82
2021/03/28 14:53:39;;;;;;;;;;;;;;;21.39;32.64;102100.94;5125075;27;19915;-82
2021/03/28 14:56:43;;;;;;;;;;;;;;;21.12;33.07;102096.22;5129914;27;19916;-82